Time;durP1;ratioP1;P1;durP2;ratioP2;P2;SDS_P1;SDS_P2;PMS_P1;PMS_P2;Temp;Humidity;BMP_temperature;BMP_pressure;BME280_temperature;BME280_humidity;BME280_pressure;Samples;Min_cycle;Max_cycle;Signal;HPM_P1;HPM_P2
2024/04/22 00:00:30;;;;;;;7.87;6.60;;;;;;;8.90;53.25;97770.34;5446203;26;20472;-69
2024/04/22 00:02:55;;;;;;;6.50;5.60;;;;;;;8.91;53.30;97769.38;5440777;26;20244;-69
2024/04/22 00:05:21;;;;;;;5.67;5.17;;;;;;;8.89;52.90;97776.53;5440126;26;20752;-68
2024/04/22 00:07:47;;;;;;;7.80;6.00;;;;;;;8.79;52.91;97767.78;5448075;26;20228;-70
2024/04/22 00:10:13;;;;;;;12.77;5.10;;;;;;;8.74;52.57;97770.78;5446708;26;20349;-70
2024/04/22 00:12:38;;;;;;;6.80;6.10;;;;;;;8.69;52.83;97765.94;5431264;26;20450;-69
2024/04/22 00:15:04;;;;;;;8.10;5.47;;;;;;;8.74;53.12;97768.19;5435658;26;20325;-69
2024/04/22 00:17:29;;;;;;;6.33;5.37;;;;;;;8.78;53.42;97776.59;5447306;26;21007;-69
2024/04/22 00:19:57;;;;;;;7.63;6.00;;;;;;;8.81;53.12;97771.09;5446830;26;20277;-72
2024/04/22 00:22:22;;;;;;;6.70;5.83;;;;;;;8.83;53.30;97771.78;5439546;26;20274;-70
2024/04/22 00:24:48;;;;;;;6.27;5.37;;;;;;;8.83;52.87;97770.00;5447480;26;20803;-71
2024/04/22 00:27:13;;;;;;;7.27;4.97;;;;;;;8.78;52.75;97768.75;5448069;26;20232;-71
2024/04/22 00:29:38;;;;;;;9.27;5.23;;;;;;;8.79;53.00;97773.00;5447543;26;20243;-70
2024/04/22 00:32:04;;;;;;;7.37;5.30;;;;;;;8.77;52.95;97775.75;5447604;26;20235;-69
2024/04/22 00:34:29;;;;;;;6.00;5.40;;;;;;;8.73;52.85;97767.31;5447665;26;20239;-70
2024/04/22 00:36:55;;;;;;;7.30;5.37;;;;;;;8.71;52.70;97764.00;5414807;26;20231;-68
2024/04/22 00:39:20;;;;;;;5.30;4.80;;;;;;;8.70;52.98;97764.16;5448267;26;20807;-69
2024/04/22 00:41:46;;;;;;;10.93;5.97;;;;;;;8.73;52.79;97764.72;5447287;26;20646;-69
2024/04/22 00:44:12;;;;;;;6.13;5.10;;;;;;;8.77;52.78;97765.28;5448337;26;20340;-70
2024/04/22 00:46:37;;;;;;;6.50;5.37;;;;;;;8.82;52.98;97772.78;5445053;26;20270;-70
2024/04/22 00:49:03;;;;;;;7.43;5.60;;;;;;;8.80;52.48;97764.22;5445773;26;20278;-72
2024/04/22 00:51:29;;;;;;;6.13;5.27;;;;;;;8.72;52.64;97768.28;5446294;26;20278;-70
2024/04/22 00:53:55;;;;;;;7.57;5.93;;;;;;;8.76;52.56;97759.25;5442577;26;20343;-70
2024/04/22 00:56:20;;;;;;;6.10;5.07;;;;;;;8.82;52.78;97762.31;5426103;26;21171;-71
2024/04/22 00:58:46;;;;;;;5.53;4.97;;;;;;;8.85;53.10;97762.88;5426572;26;20239;-69
2024/04/22 01:01:12;;;;;;;6.23;5.60;;;;;;;8.89;52.91;97766.06;5447914;26;20228;-71
2024/04/22 01:03:38;;;;;;;10.33;5.77;;;;;;;8.94;52.64;97763.91;5445833;26;20517;-70
2024/04/22 01:06:04;;;;;;;7.30;5.20;;;;;;;8.96;52.63;97769.81;5447504;26;20271;-70
2024/04/22 01:08:29;;;;;;;6.60;5.27;;;;;;;8.97;52.76;97771.47;5433642;26;20451;-71
2024/04/22 01:10:55;;;;;;;7.83;5.40;;;;;;;9.01;52.88;97767.66;5443990;26;20325;-72
2024/04/22 01:13:21;;;;;;;5.73;4.90;;;;;;;9.09;52.94;97766.16;5448093;26;20307;-69
2024/04/22 01:15:46;;;;;;;8.97;5.53;;;;;;;9.08;52.63;97770.59;5447447;26;20272;-69
2024/04/22 01:18:18;;;;;;;6.97;5.33;;;;;;;9.13;52.49;97771.03;5447308;26;20235;-70
2024/04/22 01:20:44;;;;;;;5.80;5.20;;;;;;;9.09;51.96;97759.16;5446499;26;20235;-70
2024/04/22 01:23:10;;;;;;;6.97;5.37;;;;;;;9.12;52.33;97756.31;5446354;26;20540;-68
2024/04/22 01:25:38;;;;;;;6.77;5.00;;;;;;;9.12;52.05;97747.59;5433973;26;20477;-71
2024/04/22 01:28:07;;;;;;;5.13;4.63;;;;;;;9.08;51.49;97747.06;5422295;26;20240;-69
2024/04/22 01:30:32;;;;;;;6.90;4.73;;;;;;;9.03;51.88;97755.28;5433731;26;21336;-71
2024/04/22 01:32:58;;;;;;;7.00;4.77;;;;;;;9.06;51.47;97752.41;5445516;26;20579;-68
2024/04/22 01:35:23;;;;;;;8.77;5.00;;;;;;;9.04;51.59;97743.88;5414397;26;20291;-70
2024/04/22 01:37:49;;;;;;;5.27;4.77;;;;;;;9.08;51.77;97747.06;5439194;26;20232;-72
2024/04/22 01:40:15;;;;;;;5.60;4.60;;;;;;;9.02;51.51;97748.41;5417768;26;20243;-68
2024/04/22 01:42:41;;;;;;;10.60;5.17;;;;;;;8.99;51.30;97746.03;5449830;26;20277;-69
2024/04/22 01:45:06;;;;;;;6.67;4.80;;;;;;;9.03;51.61;97744.81;5435854;26;20477;-67
2024/04/22 01:47:32;;;;;;;5.40;4.87;;;;;;;9.05;51.13;97750.75;5463265;26;20277;-68
2024/04/22 01:49:57;;;;;;;7.10;4.87;;;;;;;9.07;50.58;97750.63;5452231;26;20371;-73
2024/04/22 01:52:23;;;;;;;8.07;5.17;;;;;;;9.01;51.11;97746.72;5453099;26;20356;-69
2024/04/22 01:54:48;;;;;;;9.80;4.77;;;;;;;9.04;51.07;97748.25;5450017;26;20239;-70
2024/04/22 01:57:14;;;;;;;4.77;4.03;;;;;;;8.98;51.30;97746.16;5449206;26;20259;-69
2024/04/22 01:59:39;;;;;;;5.00;4.43;;;;;;;8.91;51.71;97740.63;5426010;26;20633;-69
2024/04/22 02:02:05;;;;;;;5.17;4.67;;;;;;;8.98;51.72;97751.41;5450380;26;20248;-69
2024/04/22 02:04:30;;;;;;;8.20;4.80;;;;;;;8.97;51.83;97752.34;5451268;26;20251;-70
2024/04/22 02:06:56;;;;;;;5.60;5.07;;;;;;;9.03;52.04;97757.91;5447718;26;20274;-69
2024/04/22 02:09:21;;;;;;;5.70;4.80;;;;;;;9.05;51.74;97742.06;5400076;26;20247;-69
2024/04/22 02:11:47;;;;;;;6.40;4.83;;;;;;;9.08;51.25;97747.06;5445358;26;20243;-69
2024/04/22 02:14:12;;;;;;;5.40;4.53;;;;;;;8.95;51.77;97742.00;5407463;26;20290;-70
2024/04/22 02:16:38;;;;;;;5.57;4.43;;;;;;;9.01;52.02;97751.97;5445859;26;20235;-68
2024/04/22 02:19:03;;;;;;;6.07;5.23;;;;;;;9.09;52.03;97753.94;5445501;26;20248;-70
2024/04/22 02:21:29;;;;;;;7.60;5.30;;;;;;;9.15;52.02;97749.97;5444559;26;20281;-71
2024/04/22 02:23:55;;;;;;;5.30;4.80;;;;;;;9.16;51.97;97755.06;5445413;26;20278;-71
2024/04/22 02:26:20;;;;;;;7.17;5.10;;;;;;;9.16;52.15;97749.00;5444848;26;20744;-70
2024/04/22 02:28:53;;;;;;;7.97;5.37;;;;;;;9.17;51.60;97750.69;5445392;26;20534;-69
2024/04/22 02:31:19;;;;;;;5.83;4.23;;;;;;;9.13;51.75;97754.50;5432336;26;20277;-70
2024/04/22 02:33:45;;;;;;;6.57;4.70;;;;;;;9.12;51.68;97750.22;5445404;26;20472;-70
2024/04/22 02:36:10;;;;;;;5.03;4.57;;;;;;;9.06;51.97;97743.72;5441642;26;20495;-69
2024/04/22 02:38:35;;;;;;;7.40;5.50;;;;;;;9.02;52.27;97750.16;5434674;26;20239;-71
2024/04/22 02:41:01;;;;;;;5.50;5.00;;;;;;;9.04;52.29;97743.03;5414127;26;20761;-69
2024/04/22 02:43:26;;;;;;;8.60;4.70;;;;;;;9.07;52.78;97745.38;5446210;26;20282;-72
2024/04/22 02:45:52;;;;;;;6.83;4.83;;;;;;;9.07;52.22;97740.16;5445587;26;20227;-70
2024/04/22 02:48:17;;;;;;;6.97;5.27;;;;;;;9.05;52.57;97742.91;5445469;26;20231;-70
2024/04/22 02:50:43;;;;;;;5.63;5.13;;;;;;;8.86;52.88;97742.78;5445656;26;20235;-71
2024/04/22 02:53:08;;;;;;;4.80;4.33;;;;;;;8.98;52.79;97743.56;5430397;26;20415;-69
2024/04/22 02:55:34;;;;;;;5.23;4.73;;;;;;;8.90;52.21;97746.81;5446207;26;20647;-70
2024/04/22 02:57:59;;;;;;;5.20;4.70;;;;;;;8.87;52.70;97741.84;5444531;26;20239;-70
2024/04/22 03:00:25;;;;;;;5.93;5.20;;;;;;;8.90;53.05;97745.00;5445694;26;20240;-70
2024/04/22 03:02:51;;;;;;;5.43;4.80;;;;;;;8.86;53.08;97738.41;5443142;26;20623;-70
2024/04/22 03:05:17;;;;;;;5.60;4.60;;;;;;;8.96;52.74;97737.63;5443254;26;20811;-69
2024/04/22 03:07:43;;;;;;;7.83;5.23;;;;;;;9.00;52.48;97732.00;5445245;26;20800;-70
2024/04/22 03:10:09;;;;;;;7.10;4.90;;;;;;;8.99;52.31;97740.81;5440123;26;20812;-70
2024/04/22 03:12:34;;;;;;;7.87;4.87;;;;;;;8.95;52.75;97736.78;5434746;26;20291;-69
2024/04/22 03:15:00;;;;;;;5.53;4.63;;;;;;;8.90;52.27;97738.97;5441526;26;20464;-70
2024/04/22 03:17:26;;;;;;;10.53;5.23;;;;;;;8.99;52.43;97732.16;5383522;26;20243;-69
2024/04/22 03:19:52;;;;;;;6.37;4.70;;;;;;;8.94;52.32;97735.16;5442172;26;20684;-70
2024/04/22 03:22:17;;;;;;;5.60;4.53;;;;;;;8.99;52.55;97738.19;5441652;26;20235;-70
2024/04/22 03:24:43;;;;;;;6.10;4.50;;;;;;;8.93;52.65;97738.72;5469449;26;20475;-69
2024/04/22 03:27:08;;;;;;;4.70;4.30;;;;;;;8.91;52.25;97732.78;5445648;26;20278;-69
2024/04/22 03:29:34;;;;;;;7.57;5.30;;;;;;;8.86;52.69;97732.34;5445627;26;20286;-73
2024/04/22 03:31:59;;;;;;;5.23;4.50;;;;;;;8.79;52.87;97734.63;5465974;26;20285;-70
2024/04/22 03:34:25;;;;;;;4.70;4.20;;;;;;;8.81;52.52;97731.91;5443617;26;20303;-70
2024/04/22 03:36:50;;;;;;;5.23;4.60;;;;;;;8.74;52.88;97735.00;5435828;26;20310;-69
2024/04/22 03:39:16;;;;;;;5.10;4.53;;;;;;;8.78;52.90;97732.16;5440507;26;20236;-69
2024/04/22 03:41:41;;;;;;;6.40;4.57;;;;;;;8.83;52.27;97737.81;5443163;26;20916;-69
2024/04/22 03:44:08;;;;;;;7.20;4.83;;;;;;;8.84;51.97;97729.00;5431947;26;20235;-70
2024/04/22 03:52:01;;;;;;;5.07;4.57;;;;;;;8.75;51.65;97730.63;5443152;26;20449;-69
2024/04/22 03:54:27;;;;;;;5.33;4.67;;;;;;;8.75;51.92;97726.22;5444383;26;20564;-69
2024/04/22 03:56:52;;;;;;;5.17;4.53;;;;;;;8.70;51.67;97725.75;5443237;26;20227;-70
2024/04/22 03:59:18;;;;;;;5.13;4.63;;;;;;;8.78;51.59;97730.34;5442585;26;20232;-69
2024/04/22 04:01:44;;;;;;;7.07;4.33;;;;;;;8.76;51.42;97733.09;5443287;26;20236;-73
2024/04/22 04:04:09;;;;;;;10.33;5.03;;;;;;;8.79;51.60;97723.34;5443218;26;20522;-69
2024/04/22 04:06:34;;;;;;;4.80;4.17;;;;;;;8.79;51.49;97729.41;5442982;26;20243;-70
2024/04/22 04:09:00;;;;;;;5.17;4.10;;;;;;;8.80;51.47;97723.22;5441422;26;20282;-69
2024/04/22 04:11:27;;;;;;;5.50;4.90;;;;;;;8.69;51.78;97721.53;5444109;26;20227;-69
2024/04/22 04:13:53;;;;;;;7.53;4.37;;;;;;;8.72;51.48;97726.47;5443696;26;20235;-71
2024/04/22 04:16:18;;;;;;;7.70;4.87;;;;;;;8.69;51.48;97733.75;5443877;26;20449;-69
2024/04/22 04:18:45;;;;;;;6.90;4.97;;;;;;;8.67;51.67;97733.88;5447026;26;20907;-70
2024/04/22 04:21:11;;;;;;;6.60;4.93;;;;;;;8.62;51.72;97730.81;5445619;26;20235;-71
2024/04/22 04:23:36;;;;;;;8.17;5.20;;;;;;;8.62;51.30;97730.81;5438248;26;21068;-70
2024/04/22 04:26:02;;;;;;;6.20;4.60;;;;;;;8.61;51.46;97734.38;5444178;26;20290;-69
2024/04/22 04:28:27;;;;;;;6.50;4.63;;;;;;;8.53;51.60;97731.56;5426914;26;20274;-69
2024/04/22 04:30:57;;;;;;;4.87;4.40;;;;;;;8.50;51.70;97727.44;5437202;26;20286;-71
2024/04/22 04:33:22;;;;;;;5.23;4.30;;;;;;;8.43;51.92;97724.47;5442331;26;20578;-68
2024/04/22 04:36:00;;;;;;;5.10;4.60;;;;;;;8.33;51.69;97726.16;5439542;26;20583;-70
2024/04/22 04:38:26;;;;;;;7.37;5.40;;;;;;;8.27;52.19;97743.16;5443336;26;20307;-69
2024/04/22 04:40:51;;;;;;;7.93;4.80;;;;;;;8.28;51.66;97733.56;5445912;26;20557;-66
2024/04/22 04:43:17;;;;;;;4.97;4.57;;;;;;;8.20;51.31;97741.16;5444290;26;20577;-69
2024/04/22 04:45:42;;;;;;;6.00;4.53;;;;;;;8.08;52.34;97735.97;5415330;26;20232;-69
2024/04/22 04:48:08;;;;;;;6.00;4.67;;;;;;;8.19;51.70;97736.91;5430457;26;20285;-71
2024/04/22 04:50:33;;;;;;;5.87;4.63;;;;;;;8.08;51.62;97738.59;5445398;26;20316;-71
2024/04/22 04:52:59;;;;;;;6.33;5.17;;;;;;;8.04;52.01;97746.78;5440330;26;20278;-70
2024/04/22 04:55:24;;;;;;;8.37;4.53;;;;;;;8.05;52.33;97744.06;5476212;26;20609;-68
2024/04/22 04:57:50;;;;;;;6.13;5.03;;;;;;;8.02;52.12;97741.72;5446150;26;20557;-70
2024/04/22 05:00:16;;;;;;;4.90;4.50;;;;;;;8.07;51.79;97752.59;5442438;26;20227;-70
2024/04/22 05:02:41;;;;;;;5.03;4.53;;;;;;;7.99;51.77;97745.41;5435572;26;20328;-69
2024/04/22 05:05:06;;;;;;;5.20;4.70;;;;;;;7.96;52.05;97740.41;5439109;26;20247;-71
2024/04/22 05:07:32;;;;;;;6.27;4.40;;;;;;;7.89;52.20;97738.41;5446773;26;20231;-71
2024/04/22 05:09:57;;;;;;;6.43;4.87;;;;;;;7.89;52.38;97751.47;5429941;26;20902;-72
2024/04/22 05:12:23;;;;;;;8.00;4.70;;;;;;;7.84;52.15;97742.22;5424545;26;20228;-71
2024/04/22 05:14:48;;;;;;;6.10;4.13;;;;;;;7.84;52.22;97752.66;5475802;26;20335;-70
2024/04/22 05:17:14;;;;;;;4.90;4.33;;;;;;;7.93;52.02;97752.88;5444522;26;20299;-71
2024/04/22 05:19:39;;;;;;;6.63;4.63;;;;;;;7.87;51.62;97759.44;5443902;26;20406;-70
2024/04/22 05:22:05;;;;;;;5.50;4.47;;;;;;;7.86;51.97;97762.13;5442553;26;20232;-70
2024/04/22 05:24:30;;;;;;;9.43;4.97;;;;;;;7.93;51.96;97760.72;5446553;26;20290;-70
2024/04/22 05:26:55;;;;;;;6.90;4.30;;;;;;;7.91;51.65;97758.22;5430766;26;20719;-70
2024/04/22 05:29:21;;;;;;;6.73;5.17;;;;;;;7.97;51.59;97756.91;5443516;26;20294;-71
2024/04/22 05:31:46;;;;;;;6.10;4.60;;;;;;;8.00;51.38;97761.88;5444471;26;20291;-69
2024/04/22 05:36:56;;;;;;;15.20;4.30;;;;;;;7.96;50.65;97765.69;5445046;26;20324;-70
2024/04/22 05:39:21;;;;;;;5.30;4.20;;;;;;;7.92;49.76;97759.06;5443148;26;20480;-68
2024/04/22 05:41:47;;;;;;;6.00;4.20;;;;;;;7.79;49.70;97760.03;5443044;26;20636;-70
2024/04/22 05:44:14;;;;;;;5.27;4.13;;;;;;;7.80;49.64;97766.06;5444501;26;20623;-70
2024/04/22 05:46:40;;;;;;;5.30;4.67;;;;;;;7.79;49.75;97760.03;5442100;26;20712;-72
2024/04/22 05:49:05;;;;;;;6.53;4.80;;;;;;;7.83;50.14;97761.44;5413735;26;20509;-70
2024/04/22 05:51:30;;;;;;;5.00;3.83;;;;;;;7.87;50.08;97761.19;5444712;26;20273;-70
2024/04/22 05:53:56;;;;;;;14.93;4.37;;;;;;;7.95;49.91;97757.03;5414857;26;20378;-70
2024/04/22 05:56:21;;;;;;;7.00;4.27;;;;;;;7.94;49.18;97757.16;5444543;26;20273;-71
2024/04/22 05:58:47;;;;;;;7.27;4.37;;;;;;;7.96;49.40;97755.22;5445867;26;20227;-71
2024/04/22 06:01:12;;;;;;;5.90;4.73;;;;;;;7.95;48.79;97753.56;5444226;26;20239;-69
2024/04/22 06:03:38;;;;;;;5.33;4.43;;;;;;;7.98;48.58;97764.63;5415192;26;20235;-69
2024/04/22 06:06:04;;;;;;;5.17;4.20;;;;;;;7.94;48.82;97757.16;5432593;26;20237;-72
2024/04/22 06:08:29;;;;;;;8.07;4.20;;;;;;;7.98;47.78;97761.16;5444782;26;20273;-70
2024/04/22 06:10:54;;;;;;;7.03;4.03;;;;;;;7.93;47.13;97765.94;5446494;26;20245;-70
2024/04/22 06:13:20;;;;;;;5.30;3.70;;;;;;;7.93;47.21;97763.34;5445823;26;20790;-70
2024/04/22 06:15:45;;;;;;;5.10;3.90;;;;;;;7.89;46.79;97767.13;5440041;26;20232;-69
2024/04/22 06:18:11;;;;;;;5.70;4.13;;;;;;;7.93;47.17;97768.56;5428814;26;20267;-69
2024/04/22 06:20:36;;;;;;;10.00;4.20;;;;;;;7.94;46.40;97763.19;5445657;26;20277;-70
2024/04/22 06:23:02;;;;;;;4.50;3.67;;;;;;;7.81;46.22;97771.16;5444581;26;20286;-71
2024/04/22 06:25:27;;;;;;;3.80;3.50;;;;;;;7.86;46.67;97764.75;5428878;26;20302;-71
2024/04/22 06:27:53;;;;;;;6.23;3.70;;;;;;;7.84;46.38;97775.31;5445702;26;20763;-70
2024/04/22 06:30:18;;;;;;;5.83;3.87;;;;;;;7.87;46.19;97774.25;5445432;26;20278;-72
2024/04/22 06:32:43;;;;;;;5.57;4.17;;;;;;;7.92;46.33;97772.09;5446318;26;20566;-71
2024/04/22 06:35:09;;;;;;;4.47;3.80;;;;;;;7.95;45.76;97774.47;5438213;26;20235;-70
2024/04/22 06:37:34;;;;;;;7.50;4.00;;;;;;;7.88;46.33;97765.47;5445496;26;20231;-70
2024/04/22 06:40:00;;;;;;;4.40;3.43;;;;;;;7.95;45.83;97777.06;5434576;26;20279;-71
2024/04/22 06:42:25;;;;;;;6.77;4.87;;;;;;;7.95;45.66;97777.06;5442071;26;20331;-71
2024/04/22 06:44:51;;;;;;;7.20;4.70;;;;;;;7.95;45.93;97772.69;5443734;26;20314;-72
2024/04/22 06:47:16;;;;;;;11.57;5.67;;;;;;;7.98;46.34;97779.44;5440562;26;20668;-69
2024/04/22 06:49:41;;;;;;;4.13;3.73;;;;;;;8.06;46.30;97777.06;5444712;26;20285;-69
2024/04/22 06:52:07;;;;;;;6.80;4.30;;;;;;;8.10;46.11;97783.69;5432193;26;20308;-71
2024/04/22 06:54:32;;;;;;;6.90;4.70;;;;;;;8.20;45.81;97782.94;5443592;26;20325;-70
2024/04/22 06:56:58;;;;;;;6.33;5.30;;;;;;;8.21;46.25;97776.75;5449116;26;20231;-71
2024/04/22 06:59:23;;;;;;;5.53;4.40;;;;;;;8.26;46.46;97779.84;5441834;26;20235;-73
2024/04/22 07:01:49;;;;;;;5.63;4.20;;;;;;;8.26;45.60;97783.28;5438242;26;20224;-70
2024/04/22 07:04:14;;;;;;;3.93;3.43;;;;;;;8.35;45.36;97786.13;5432001;26;20232;-70
2024/04/22 07:06:39;;;;;;;6.20;4.20;;;;;;;8.32;45.50;97781.94;5440555;26;20866;-70
2024/04/22 07:09:09;;;;;;;5.93;4.23;;;;;;;8.31;45.11;97782.94;5444435;26;20289;-70
2024/04/22 07:11:38;;;;;;;6.47;3.87;;;;;;;8.28;44.87;97791.00;5444347;26;20227;-71
2024/04/22 07:14:05;;;;;;;4.10;3.60;;;;;;;8.32;45.20;97781.13;5446739;26;20464;-71
2024/04/22 07:16:31;;;;;;;4.73;3.83;;;;;;;8.22;44.64;97792.34;5443136;26;20508;-71
2024/04/22 07:18:56;;;;;;;4.70;3.90;;;;;;;8.25;44.76;97793.84;5436215;26;20450;-70
2024/04/22 07:21:22;;;;;;;4.43;3.80;;;;;;;8.28;45.03;97794.44;5444278;26;20284;-70
2024/04/22 07:23:48;;;;;;;4.17;3.70;;;;;;;8.30;45.02;97789.09;5413386;26;20270;-71
2024/04/22 07:26:13;;;;;;;5.60;3.90;;;;;;;8.39;44.74;97796.19;5451097;26;20236;-70
2024/04/22 07:28:39;;;;;;;4.40;3.53;;;;;;;8.50;44.85;97794.53;5429965;26;20228;-73
2024/04/22 07:31:04;;;;;;;4.30;3.90;;;;;;;8.53;44.91;97800.31;5440878;26;20887;-70
2024/04/22 07:33:30;;;;;;;4.73;4.20;;;;;;;8.64;45.05;97790.75;5446914;26;20311;-73
2024/04/22 07:36:02;;;;;;;5.23;3.70;;;;;;;8.68;44.27;97789.56;5445662;26;20283;-69
2024/04/22 07:38:30;;;;;;;4.57;4.00;;;;;;;8.74;44.48;97792.50;5436577;26;20513;-72
2024/04/22 07:40:56;;;;;;;6.83;4.47;;;;;;;8.98;44.13;97791.44;5442607;26;20469;-69
2024/04/22 07:43:22;;;;;;;4.87;4.07;;;;;;;9.07;43.73;97797.69;5473233;26;21032;-72
2024/04/22 07:45:47;;;;;;;8.63;3.90;;;;;;;9.18;43.64;97788.94;5445023;26;20247;-70
2024/04/22 07:48:13;;;;;;;4.53;4.13;;;;;;;9.27;42.80;97798.63;5432026;26;20278;-68
2024/04/22 07:50:38;;;;;;;6.20;3.63;;;;;;;9.34;42.28;97791.09;5442769;26;20286;-68
2024/04/22 07:53:05;;;;;;;10.73;4.67;;;;;;;9.38;42.39;97785.47;5440533;26;20974;-70
2024/04/22 07:55:31;;;;;;;4.47;3.60;;;;;;;9.33;42.39;97798.09;5438313;26;20247;-69
2024/04/22 07:57:57;;;;;;;3.80;3.50;;;;;;;9.46;42.52;97789.19;5429342;26;20586;-70
2024/04/22 08:00:23;;;;;;;7.47;3.70;;;;;;;9.52;42.66;97789.50;5437142;26;20235;-69
2024/04/22 08:02:48;;;;;;;3.77;3.43;;;;;;;9.53;42.34;97787.75;5434022;26;20446;-68
2024/04/22 08:05:14;;;;;;;5.47;3.70;;;;;;;9.58;42.15;97790.78;5427196;26;20467;-70
2024/04/22 08:07:40;;;;;;;5.60;3.90;;;;;;;9.76;42.50;97798.00;5429788;26;20236;-70
2024/04/22 08:10:06;;;;;;;6.43;4.00;;;;;;;9.82;41.79;97792.25;5440360;26;20235;-70
2024/04/22 08:12:32;;;;;;;6.60;3.83;;;;;;;9.91;41.07;97793.22;5429259;26;20458;-69
2024/04/22 08:14:57;;;;;;;4.13;3.70;;;;;;;10.17;40.94;97790.97;5434314;26;20465;-68
2024/04/22 08:17:23;;;;;;;4.10;3.57;;;;;;;10.35;41.14;97787.66;5435301;26;20356;-69
2024/04/22 08:19:48;;;;;;;4.33;3.50;;;;;;;10.45;39.07;97783.31;5447000;26;20235;-69
2024/04/22 08:22:17;;;;;;;4.87;3.67;;;;;;;10.78;38.71;97791.69;5434075;26;20307;-68
2024/04/22 08:24:44;;;;;;;3.20;2.90;;;;;;;10.84;37.99;97785.88;5448398;26;20235;-70
2024/04/22 08:27:11;;;;;;;4.93;3.63;;;;;;;10.89;37.41;97788.94;5448477;26;20452;-69
2024/04/22 08:29:36;;;;;;;3.57;3.10;;;;;;;11.10;37.39;97793.16;5437015;26;20861;-70
2024/04/22 08:32:02;;;;;;;7.33;3.30;;;;;;;11.19;37.08;97789.72;5449020;26;20456;-70
2024/04/22 08:34:27;;;;;;;4.17;3.10;;;;;;;11.09;36.53;97791.50;5448470;26;20320;-69
2024/04/22 08:36:53;;;;;;;7.00;3.40;;;;;;;11.14;36.67;97794.53;5446612;26;20343;-69
2024/04/22 08:39:19;;;;;;;6.73;3.13;;;;;;;11.29;36.58;97796.72;5446195;26;20302;-70
2024/04/22 08:41:44;;;;;;;3.87;2.93;;;;;;;11.53;36.75;97791.81;5446504;26;20916;-70
2024/04/22 08:44:10;;;;;;;3.03;2.73;;;;;;;11.65;35.81;97781.13;5437586;26;20327;-70
2024/04/22 08:46:35;;;;;;;4.53;2.80;;;;;;;11.74;35.11;97790.75;5445932;26;20232;-69
2024/04/22 08:49:00;;;;;;;2.40;2.17;;;;;;;11.74;34.88;97790.75;5432751;26;20231;-70
2024/04/22 08:51:27;;;;;;;3.03;2.70;;;;;;;11.83;35.13;97795.16;5447265;26;20725;-70
2024/04/22 08:53:52;;;;;;;4.10;3.23;;;;;;;11.83;35.58;97791.69;5446140;26;20235;-70
2024/04/22 08:56:21;;;;;;;3.00;2.57;;;;;;;11.83;35.32;97800.41;5433332;26;21081;-69
2024/04/22 08:58:47;;;;;;;13.40;3.00;;;;;;;11.90;35.55;97799.81;5447100;26;20559;-69
2024/04/22 09:01:14;;;;;;;3.37;3.07;;;;;;;11.83;34.91;97805.66;5448052;26;20504;-70
2024/04/22 09:03:40;;;;;;;3.20;2.60;;;;;;;11.66;35.06;97804.59;5428168;26;20314;-69
2024/04/22 09:06:05;;;;;;;2.77;2.57;;;;;;;11.48;35.60;97796.66;5435595;26;20465;-70
2024/04/22 09:08:45;;;;;;;3.30;2.77;;;;;;;11.46;34.48;97801.25;5444086;26;20239;-68
2024/04/22 09:11:17;;;;;;;3.53;2.70;;;;;;;11.20;34.89;97804.50;5438767;26;20239;-70
2024/04/22 09:13:43;;;;;;;3.30;2.80;;;;;;;11.34;35.53;97794.50;5433111;26;20451;-71
2024/04/22 09:16:17;;;;;;;7.67;3.17;;;;;;;11.45;35.36;97794.34;5428346;26;21119;-71
2024/04/22 09:18:43;;;;;;;3.17;2.80;;;;;;;11.80;35.21;97791.97;5443613;26;20602;-71
2024/04/22 09:21:09;;;;;;;5.53;3.10;;;;;;;12.14;35.26;97794.84;5423967;26;20484;-70
2024/04/22 09:23:36;;;;;;;5.70;3.67;;;;;;;12.18;34.10;97792.75;5437423;26;20286;-70
2024/04/22 09:26:02;;;;;;;3.50;3.20;;;;;;;12.12;33.67;97788.91;5403822;26;20513;-69
2024/04/22 09:28:28;;;;;;;9.10;3.20;;;;;;;12.40;33.96;97780.19;5431654;26;20464;-69
2024/04/22 09:30:57;;;;;;;3.97;3.07;;;;;;;12.49;33.93;97797.66;5450813;26;20277;-69
2024/04/22 09:33:23;;;;;;;9.27;2.83;;;;;;;12.72;33.81;97784.91;5415788;26;20457;-71
2024/04/22 09:35:51;;;;;;;2.80;2.47;;;;;;;13.01;33.52;97773.25;5444682;26;20518;-70
2024/04/22 09:38:17;;;;;;;3.57;3.27;;;;;;;12.96;32.60;97778.19;5447143;26;20275;-69
2024/04/22 09:40:43;;;;;;;4.67;2.93;;;;;;;12.73;32.46;97780.44;5437499;26;20513;-70
2024/04/22 09:43:09;;;;;;;4.27;2.70;;;;;;;12.65;33.80;97778.59;5444662;26;20453;-70
2024/04/22 09:45:34;;;;;;;5.07;3.27;;;;;;;12.44;33.93;97781.50;5448680;26;20307;-69
2024/04/22 09:48:00;;;;;;;3.07;2.77;;;;;;;12.36;33.48;97778.81;5447978;26;20744;-69
2024/04/22 09:50:26;;;;;;;3.60;3.13;;;;;;;12.29;34.14;97773.31;5447232;26;20231;-70
2024/04/22 09:52:51;;;;;;;3.20;2.90;;;;;;;12.29;34.65;97768.06;5440945;26;20235;-71
2024/04/22 09:55:17;;;;;;;2.97;2.60;;;;;;;12.30;34.63;97777.63;5441987;26;21108;-70
2024/04/22 09:57:43;;;;;;;3.37;3.07;;;;;;;12.25;34.69;97771.97;5442418;26;20609;-70
2024/04/22 10:00:09;;;;;;;5.77;3.03;;;;;;;12.09;34.01;97781.34;5431019;26;20352;-70
2024/04/22 10:02:34;;;;;;;3.37;3.07;;;;;;;11.91;34.17;97775.19;5436761;26;20544;-70
2024/04/22 10:05:00;;;;;;;3.37;2.63;;;;;;;11.80;35.08;97771.81;5445357;26;20299;-70
2024/04/22 10:07:25;;;;;;;3.13;2.83;;;;;;;11.84;35.90;97774.94;5440505;26;20227;-71
2024/04/22 10:09:56;;;;;;;6.80;3.17;;;;;;;11.72;34.62;97765.63;5431259;26;20232;-69
2024/04/22 10:12:28;;;;;;;7.40;3.40;;;;;;;11.61;34.96;97769.25;5432199;26;20314;-70
2024/04/22 10:15:10;;;;;;;5.87;3.33;;;;;;;11.65;35.62;97757.50;5437278;26;20637;-69
2024/04/22 10:17:35;;;;;;;4.10;3.10;;;;;;;11.64;35.60;97763.72;5442368;26;20461;-70
2024/04/22 10:20:01;;;;;;;5.07;3.27;;;;;;;11.72;36.10;97760.38;5446518;26;20449;-69
2024/04/22 10:22:32;;;;;;;3.30;2.77;;;;;;;11.70;35.48;97757.06;5446897;26;20299;-69
2024/04/22 10:24:58;;;;;;;4.23;2.73;;;;;;;11.93;34.94;97755.69;5438987;26;20572;-70
2024/04/22 10:27:24;;;;;;;3.03;2.70;;;;;;;11.98;34.77;97747.38;5400181;26;20504;-71
2024/04/22 10:29:49;;;;;;;4.17;3.60;;;;;;;11.97;33.80;97743.09;5437657;26;20462;-69
2024/04/22 10:32:15;;;;;;;2.60;2.27;;;;;;;12.00;33.62;97742.81;5430256;26;20388;-71
2024/04/22 10:34:44;;;;;;;5.90;3.03;;;;;;;12.09;33.77;97741.09;5436336;26;20295;-70
2024/04/22 10:37:10;;;;;;;4.83;2.80;;;;;;;12.16;33.67;97742.16;5444489;26;20304;-70
2024/04/22 10:39:36;;;;;;;2.63;2.33;;;;;;;12.33;33.44;97737.91;5439685;26;20512;-70
2024/04/22 10:42:02;;;;;;;3.30;2.43;;;;;;;12.33;32.84;97730.00;5439327;26;20918;-70
2024/04/22 10:44:28;;;;;;;3.10;2.60;;;;;;;12.35;32.56;97730.66;5394732;26;20244;-70
2024/04/22 10:46:54;;;;;;;3.27;2.97;;;;;;;12.83;31.67;97727.78;5429405;26;21504;-70
2024/04/22 10:49:19;;;;;;;4.60;4.17;;;;;;;13.48;32.54;97721.25;5441071;26;20818;-70
2024/04/22 10:51:45;;;;;;;5.23;3.30;;;;;;;14.02;30.78;97717.44;5443235;26;20513;-71
2024/04/22 10:54:12;;;;;;;3.97;3.50;;;;;;;14.31;30.06;97710.91;5439247;26;20239;-70
2024/04/22 10:56:38;;;;;;;3.27;2.93;;;;;;;14.78;29.96;97706.81;5420917;26;20241;-71
2024/04/22 10:59:03;;;;;;;3.23;2.57;;;;;;;15.13;28.80;97699.47;5444787;26;20469;-70
2024/04/22 11:01:29;;;;;;;4.60;2.90;;;;;;;15.56;28.54;97699.16;5434175;26;20240;-70
2024/04/22 11:03:55;;;;;;;3.40;2.57;;;;;;;15.96;27.66;97702.63;5405852;26;20289;-72
2024/04/22 11:06:20;;;;;;;2.70;2.30;;;;;;;15.66;26.77;97697.97;5440423;26;20364;-70
2024/04/22 11:08:46;;;;;;;2.63;2.43;;;;;;;15.31;27.16;97692.16;5436004;26;20573;-70
2024/04/22 11:11:16;;;;;;;3.40;3.10;;;;;;;14.98;27.58;97694.09;5431334;26;20291;-69
2024/04/22 11:13:42;;;;;;;4.07;2.47;;;;;;;14.84;27.74;97688.50;5439477;26;20896;-69
2024/04/22 11:16:08;;;;;;;3.30;2.50;;;;;;;14.43;27.84;97688.50;5435299;26;20486;-71
2024/04/22 11:18:34;;;;;;;3.03;2.73;;;;;;;14.22;28.47;97702.16;5439930;26;20449;-69
2024/04/22 11:21:00;;;;;;;2.33;2.13;;;;;;;13.90;28.92;97693.25;5432591;26;20465;-71
2024/04/22 11:23:25;;;;;;;2.97;2.77;;;;;;;13.81;28.89;97695.03;5407191;26;20505;-71
2024/04/22 11:25:51;;;;;;;3.80;2.10;;;;;;;13.66;28.82;97697.47;5416487;26;20968;-69
2024/04/22 11:28:18;;;;;;;4.70;2.53;;;;;;;13.36;28.39;97699.59;5427131;26;20231;-69
2024/04/22 11:30:43;;;;;;;4.37;3.97;;;;;;;13.41;28.57;97699.16;5422994;26;20293;-71
2024/04/22 11:33:10;;;;;;;2.80;2.50;;;;;;;13.40;29.22;97702.78;5436394;26;20593;-71
2024/04/22 11:35:37;;;;;;;4.47;2.40;;;;;;;13.95;29.56;97691.75;5419659;26;20247;-71
2024/04/22 11:38:12;;;;;;;2.80;2.43;;;;;;;14.34;28.67;97689.50;5409689;26;20476;-70
2024/04/22 11:40:44;;;;;;;3.60;2.63;;;;;;;14.66;27.95;97688.66;5433759;26;21159;-71